createdAt,value
2022-12-25T00:00:00.222Z,1023.2
2022-12-25T00:16:00.252Z,1023.07
2022-12-25T00:31:00.283Z,1023.07
2022-12-25T00:46:00.269Z,1023.13
2022-12-25T01:00:00.273Z,1023.4
2022-12-25T01:16:00.313Z,1023.67
2022-12-25T01:31:00.257Z,1023.84
2022-12-25T01:46:00.507Z,1023.98
2022-12-25T02:00:00.224Z,1024.08
2022-12-25T02:16:00.322Z,1024.12
2022-12-25T02:31:00.271Z,1024.08
2022-12-25T02:46:00.416Z,1024.05
2022-12-25T03:00:00.292Z,1023.88
2022-12-25T03:16:00.308Z,1023.98
2022-12-25T03:31:00.345Z,1023.84
2022-12-25T03:46:00.345Z,1023.78
2022-12-25T04:00:00.329Z,1023.71
2022-12-25T04:16:00.446Z,1023.81
2022-12-25T04:31:00.414Z,1023.88
2022-12-25T04:46:00.354Z,1023.84
2022-12-25T05:00:00.363Z,1023.84
2022-12-25T05:16:00.368Z,1023.95
2022-12-25T05:31:00.519Z,1024.05
2022-12-25T05:46:00.381Z,1024.01
2022-12-25T06:00:00.413Z,1024.01
2022-12-25T06:16:00.416Z,1024.12
2022-12-25T06:31:00.351Z,1024.28
2022-12-25T06:46:00.432Z,1024.42
2022-12-25T07:00:00.365Z,1024.52
2022-12-25T07:16:00.416Z,1024.72
2022-12-25T07:31:00.427Z,1024.96
2022-12-25T07:46:01.408Z,1025.16
2022-12-25T08:00:00.508Z,1025.4
2022-12-25T08:16:00.413Z,1025.54
2022-12-25T08:31:00.479Z,1025.5
2022-12-25T08:46:00.465Z,1025.47
2022-12-25T09:00:00.492Z,1025.5
2022-12-25T09:16:00.484Z,1025.57
2022-12-25T09:31:00.534Z,1025.61
2022-12-25T09:46:00.438Z,1025.57
2022-12-25T10:00:00.460Z,1025.57
2022-12-25T10:16:00.554Z,1025.54
2022-12-25T10:31:00.486Z,1025.33
2022-12-25T10:46:00.547Z,1025.33
2022-12-25T11:00:09.363Z,1025.03
2022-12-25T11:16:00.424Z,1024.83
2022-12-25T11:31:00.456Z,1024.66
2022-12-25T11:46:00.430Z,1024.52
2022-12-25T12:00:00.493Z,1024.35
2022-12-25T12:16:00.490Z,1024.45
2022-12-25T12:31:00.472Z,1024.28
2022-12-25T12:46:00.567Z,1024.28
2022-12-25T13:00:06.439Z,1024.35
2022-12-25T13:16:00.464Z,1024.28
2022-12-25T13:31:00.457Z,1023.98
2022-12-25T13:46:00.538Z,1023.91
2022-12-25T14:00:00.471Z,1023.78
2022-12-25T14:16:00.473Z,1023.91
2022-12-25T14:31:00.609Z,1023.81
2022-12-25T14:46:00.767Z,1023.88
2022-12-25T15:00:00.505Z,1023.78
2022-12-25T15:16:00.644Z,1024.08
2022-12-25T15:31:00.638Z,1024.15
2022-12-25T15:46:00.659Z,1024.18
2022-12-25T16:00:00.576Z,1023.91
2022-12-25T16:16:00.607Z,1023.84
2022-12-25T16:31:00.693Z,1024.01
2022-12-25T16:46:00.696Z,1024.12
2022-12-25T17:00:00.717Z,1024.25
2022-12-25T17:16:00.634Z,1024.22
2022-12-25T17:31:00.710Z,1024.35
2022-12-25T17:46:00.633Z,1024.25
2022-12-25T18:00:00.667Z,1024.35
2022-12-25T18:16:00.685Z,1024.42
2022-12-25T18:31:00.683Z,1024.35
2022-12-25T18:46:00.815Z,1024.32
2022-12-25T19:00:00.763Z,1024.32
2022-12-25T19:16:00.804Z,1024.25
2022-12-25T19:31:00.816Z,1024.35
2022-12-25T19:46:00.766Z,1024.25
2022-12-25T20:00:00.769Z,1024.08
2022-12-25T20:16:00.910Z,1024.08
2022-12-25T20:31:00.734Z,1024.08
2022-12-25T20:46:00.827Z,1024.28
2022-12-25T21:00:00.786Z,1024.39
2022-12-25T21:16:00.689Z,1024.22
2022-12-25T21:31:00.783Z,1024.28
2022-12-25T21:46:00.761Z,1024.12
2022-12-25T22:00:00.751Z,1024.18
2022-12-25T22:16:00.753Z,1024.12
2022-12-25T22:31:00.752Z,1023.98
2022-12-25T22:46:01.577Z,1023.95
2022-12-25T23:00:00.832Z,1024.12
2022-12-25T23:16:00.737Z,1024.08
2022-12-25T23:31:00.891Z,1024.05
2022-12-25T23:46:00.942Z,1024.05
